»·PEaware :: N337JB KGJT-KTEX

N337JB :: KGJT-KTEX

FLIGHT INFORMATION

Flight Status: Arrived
Operator: Privately registered:
United States
More flights under this callsign
Pilot: Jason M. (39893)
Aircraft: CIRRUS SR-22
(SR22)
More flights by this aircraft type
Origin: KGJT Grand Junction Regl
United States
Destination: KTEX Telluride Regl
United States
More flights between these airports :: More routes between these airports
Route:
File this flight plan on PilotEdge
Remarks:
Altitude:
(Current/Filed)
12,500ft
Speed:
(Current/Filed)
130kts
Departed: 15-May-23 12:07 PM
Arrived: 15-May-23 12:42 PM
Distance/Time
Traveled:
76nm/0:35
Distance/Time
To Go:
Arrived

Flight Plot

Page will automatically refresh every two minutes.

Flight plan parsing failed; only flown route is shown


Map Options




Map Legend


Flown Route
Filed Route
Departure Airport
Arrival Airport
Navaid (VOR, NDB)
Fix

Horizontal Profiles

Position Reports

Time Latitude Longitude Heading Altitude Ground
Speed
15-May-23 11:42 39.125694 -108.531270 215 4831ft 0kts
15-May-23 11:43 39.125694 -108.531270 215 4831ft 0kts
15-May-23 11:44 39.125694 -108.531270 215 4831ft 0kts
15-May-23 11:45 39.125694 -108.531270 215 4831ft 0kts
15-May-23 11:46 39.125694 -108.531270 215 4831ft 0kts
15-May-23 11:47 39.125694 -108.531270 215 4831ft 0kts
15-May-23 11:48 39.125694 -108.531270 215 4831ft 0kts
15-May-23 11:49 39.125694 -108.531270 215 4831ft 0kts
15-May-23 11:50 39.125694 -108.531270 215 4831ft 0kts
15-May-23 11:51 39.125694 -108.531270 215 4831ft 0kts
15-May-23 11:52 39.125694 -108.531270 215 4831ft 0kts
15-May-23 11:53 39.125694 -108.531270 215 4831ft 0kts
15-May-23 11:54 39.125694 -108.531270 215 4831ft 0kts
15-May-23 11:55 39.125694 -108.531270 215 4831ft 0kts
15-May-23 11:56 39.125694 -108.531270 215 4831ft 0kts
15-May-23 11:57 39.125240 -108.530763 129 4830ft 6kts
15-May-23 11:58 39.124241 -108.528965 124 4834ft 7kts
15-May-23 11:59 39.124238 -108.527229 119 4840ft 4kts
15-May-23 12:00 39.122302 -108.523709 124 4840ft 13kts
15-May-23 12:01 39.120558 -108.520565 124 4842ft 9kts
15-May-23 12:02 39.119232 -108.518100 125 4845ft 7kts
15-May-23 12:03 39.118486 -108.516720 124 4846ft 0kts
15-May-23 12:04 39.118486 -108.516720 124 4846ft 0kts
15-May-23 12:04 39.118486 -108.516720 124 4846ft 0kts
15-May-23 12:06 39.118019 -108.515342 60 4846ft 9kts
15-May-23 12:07 39.125061 -108.527835 297 4950ft 109kts
15-May-23 12:08 39.144445 -108.569952 293 5490ft 149kts
15-May-23 12:08 39.145202 -108.613876 231 6000ft 156kts
15-May-23 12:09 39.101475 -108.611763 153 6652ft 160kts
15-May-23 12:10 39.062374 -108.576773 142 7293ft 163kts
15-May-23 12:12 39.017038 -108.532946 142 8119ft 167kts
15-May-23 12:12 38.983917 -108.500905 142 8745ft 169kts
15-May-23 12:13 38.944013 -108.460840 139 9501ft 171kts
15-May-23 12:14 38.899581 -108.433234 178 10279ft 172kts
15-May-23 12:15 38.848881 -108.427431 174 11019ft 174kts
15-May-23 12:16 38.796697 -108.420275 174 11773ft 176kts
15-May-23 12:17 38.744059 -108.413060 174 12527ft 178kts
15-May-23 12:18 38.689002 -108.405576 174 12782ft 185kts
15-May-23 12:19 38.637351 -108.398467 174 12786ft 167kts
15-May-23 12:20 38.587896 -108.391739 174 12788ft 167kts
15-May-23 12:21 38.538132 -108.384967 174 12791ft 167kts
15-May-23 12:22 38.488038 -108.378155 174 12797ft 167kts
15-May-23 12:23 38.438522 -108.371429 174 12804ft 167kts
15-May-23 12:24 38.394950 -108.379342 210 12812ft 163kts
15-May-23 12:25 38.356601 -108.409910 216 12840ft 161kts
15-May-23 12:26 38.316324 -108.422977 145 12889ft 164kts
15-May-23 12:27 38.292351 -108.373226 128 12897ft 166kts
15-May-23 12:28 38.248019 -108.371410 204 12919ft 162kts
15-May-23 12:29 38.210522 -108.404499 221 12761ft 170kts
15-May-23 12:30 38.168251 -108.422722 149 12945ft 157kts
15-May-23 12:31 38.134993 -108.382461 133 12986ft 163kts
15-May-23 12:32 38.103043 -108.340613 133 12994ft 166kts
15-May-23 12:33 38.070856 -108.298533 133 13009ft 166kts
15-May-23 12:34 38.037412 -108.251049 133 13012ft 166kts
15-May-23 12:35 38.014104 -108.196192 103 13009ft 165kts
15-May-23 12:36 38.002194 -108.139476 102 13009ft 165kts
15-May-23 12:37 37.989694 -108.079583 103 12174ft 168kts
15-May-23 12:38 37.978147 -108.024507 102 11073ft 145kts
15-May-23 12:39 37.967490 -107.973686 103 10099ft 139kts
15-May-23 12:40 37.958656 -107.931703 103 9285ft 102kts
15-May-23 12:41 37.954636 -107.912275 116 9032ft 11kts
15-May-23 12:42 37.953620 -107.907574 103 9032ft 15kts
15-May-23 12:43 37.952507 -107.901926 104 9060ft 19kts
15-May-23 12:44 37.952931 -107.901241 13 9064ft 0kts
15-May-23 12:45 37.952931 -107.901241 13 9064ft 0kts

Navigation Log

Ident Type
Flight plan parsing failed, navigation log unavailable